createdAt,value
2018-12-29T00:01:46.494Z,31.10
2018-12-29T00:04:19.908Z,30.70
2018-12-29T00:06:50.205Z,29.90
2018-12-29T00:09:19.638Z,29.83
2018-12-29T00:11:49.489Z,30.37
2018-12-29T00:14:18.995Z,30.83
2018-12-29T00:16:48.266Z,30.50
2018-12-29T00:19:22.851Z,30.63
2018-12-29T00:21:55.960Z,30.97
2018-12-29T00:24:25.185Z,30.83
2018-12-29T00:26:58.846Z,32.70
2018-12-29T00:29:29.063Z,32.50
2018-12-29T00:31:58.602Z,32.20
2018-12-29T00:34:30.105Z,34.10
2018-12-29T00:37:04.012Z,35.70
2018-12-29T00:39:33.819Z,35.43
2018-12-29T00:42:03.408Z,33.93
2018-12-29T00:44:32.646Z,36.67
2018-12-29T00:47:02.224Z,33.90
2018-12-29T00:49:32.253Z,34.97
2018-12-29T00:52:25.026Z,37.30
2018-12-29T00:54:55.060Z,35.40
2018-12-29T00:57:25.215Z,36.23
2018-12-29T00:59:55.230Z,36.70
2018-12-29T01:02:24.628Z,36.50
2018-12-29T01:04:55.320Z,36.43
2018-12-29T01:07:27.762Z,35.10
2018-12-29T01:09:58.972Z,35.20
2018-12-29T01:12:30.595Z,37.03
2018-12-29T01:15:09.692Z,36.30
2018-12-29T01:17:34.425Z,36.67
2018-12-29T01:20:05.264Z,36.63
2018-12-29T01:22:35.705Z,34.93
2018-12-29T01:25:09.165Z,36.80
2018-12-29T01:27:39.497Z,35.53
2018-12-29T01:30:10.926Z,36.57
2018-12-29T01:32:41.139Z,35.90
2018-12-29T01:35:14.773Z,37.60
2018-12-29T01:37:44.900Z,35.67
2018-12-29T01:40:14.618Z,34.03
2018-12-29T01:42:43.919Z,36.63
2018-12-29T01:45:17.613Z,35.63
2018-12-29T01:47:49.554Z,34.50
2018-12-29T01:50:20.047Z,37.77
2018-12-29T01:52:50.188Z,33.87
2018-12-29T01:55:19.740Z,36.07
2018-12-29T01:57:52.970Z,33.37
2018-12-29T02:00:26.798Z,37.17
2018-12-29T02:02:56.301Z,35.23
2018-12-29T02:05:25.583Z,35.67
2018-12-29T02:07:56.047Z,34.70
2018-12-29T02:10:25.313Z,35.77
2018-12-29T02:12:56.901Z,35.63
2018-12-29T02:15:26.173Z,36.13
2018-12-29T02:17:56.416Z,36.37
2018-12-29T02:20:28.265Z,35.37
2018-12-29T02:23:01.174Z,37.73
2018-12-29T02:25:31.219Z,36.53
2018-12-29T02:28:01.380Z,36.83
2018-12-29T02:30:31.435Z,39.33
2018-12-29T02:33:01.859Z,38.33
2018-12-29T02:35:35.472Z,36.27
2018-12-29T02:38:04.714Z,37.77
2018-12-29T02:40:34.186Z,39.20
2018-12-29T02:43:04.215Z,36.63
2018-12-29T02:45:33.608Z,37.33
2018-12-29T02:48:03.836Z,38.10
2018-12-29T02:50:35.054Z,34.93
2018-12-29T02:53:04.586Z,36.77
2018-12-29T02:55:35.418Z,35.23
2018-12-29T02:58:04.903Z,37.37
2018-12-29T03:00:34.672Z,36.33
2018-12-29T03:03:04.749Z,33.53
2018-12-29T03:05:35.086Z,35.17
2018-12-29T03:08:04.339Z,34.57
2018-12-29T03:10:35.206Z,33.73
2018-12-29T03:13:05.583Z,32.87
2018-12-29T03:15:41.166Z,34.23
2018-12-29T03:18:07.958Z,32.37
2018-12-29T03:20:41.085Z,34.00
2018-12-29T03:23:10.303Z,32.87
2018-12-29T03:25:40.391Z,33.30
2018-12-29T03:28:09.606Z,33.53
2018-12-29T03:30:42.495Z,33.50
2018-12-29T03:33:11.871Z,32.77
2018-12-29T03:35:41.397Z,33.13
2018-12-29T03:38:11.218Z,33.63
2018-12-29T03:40:40.448Z,38.37
2018-12-29T03:43:09.749Z,34.13
2018-12-29T03:45:40.047Z,31.33
2018-12-29T03:48:12.672Z,34.10
2018-12-29T03:50:43.476Z,31.40
2018-12-29T03:53:14.170Z,32.30
2018-12-29T03:55:49.803Z,32.40
2018-12-29T03:58:19.837Z,32.20
2018-12-29T04:00:49.350Z,30.67
2018-12-29T04:03:19.710Z,31.60
2018-12-29T04:05:50.784Z,31.90
2018-12-29T04:08:23.293Z,31.83
2018-12-29T04:10:52.526Z,31.10
2018-12-29T04:13:23.147Z,31.93
2018-12-29T04:15:58.045Z,31.00
2018-12-29T04:18:26.706Z,31.77
2018-12-29T04:20:57.743Z,31.10
2018-12-29T04:23:27.826Z,31.70
2018-12-29T04:26:00.270Z,30.07
2018-12-29T04:28:30.111Z,31.87
2018-12-29T04:31:00.093Z,29.73
2018-12-29T04:33:30.966Z,31.77
2018-12-29T04:36:00.701Z,28.17
2018-12-29T04:38:29.982Z,28.73
2018-12-29T04:41:02.025Z,29.73
2018-12-29T04:43:35.935Z,27.57
2018-12-29T04:46:07.219Z,26.60
2018-12-29T04:48:37.687Z,28.07
2018-12-29T04:51:07.767Z,27.00
2018-12-29T04:53:41.462Z,26.67
2018-12-29T04:56:11.792Z,26.27
2018-12-29T04:58:44.371Z,26.20
2018-12-29T05:01:19.125Z,25.70
2018-12-29T05:03:50.033Z,26.90
2018-12-29T05:06:19.922Z,25.33
2018-12-29T05:08:49.453Z,26.43
2018-12-29T05:11:19.476Z,25.30
2018-12-29T05:13:49.902Z,24.50
2018-12-29T05:16:19.950Z,23.33
2018-12-29T05:18:50.380Z,24.70
2018-12-29T05:21:21.934Z,24.27
2018-12-29T05:23:55.499Z,22.67
2018-12-29T05:26:25.250Z,23.93
2018-12-29T05:28:58.354Z,22.63
2018-12-29T05:31:28.194Z,23.13
2018-12-29T05:33:57.476Z,23.40
2018-12-29T05:36:26.824Z,23.80
2018-12-29T05:38:57.653Z,23.00
2018-12-29T05:41:27.215Z,25.03
2018-12-29T05:43:58.703Z,24.07
2018-12-29T05:46:35.694Z,24.80
2018-12-29T05:49:06.243Z,24.30
2018-12-29T05:51:36.623Z,25.03
2018-12-29T05:54:06.184Z,24.57
2018-12-29T05:56:36.340Z,26.47
2018-12-29T05:59:08.753Z,26.83
2018-12-29T06:01:37.986Z,25.10
2018-12-29T06:04:08.020Z,26.50
2018-12-29T06:06:41.068Z,25.97
2018-12-29T06:09:10.320Z,25.87
2018-12-29T06:11:40.615Z,26.73
2018-12-29T06:14:13.809Z,26.37
2018-12-29T06:16:43.117Z,27.07
2018-12-29T06:19:15.196Z,26.23
2018-12-29T06:21:46.279Z,26.47
2018-12-29T06:24:17.898Z,26.50
2018-12-29T06:26:47.938Z,23.97
2018-12-29T06:29:19.255Z,26.50
2018-12-29T06:31:48.314Z,25.07
2018-12-29T06:34:18.238Z,24.63
2018-12-29T06:36:48.637Z,25.20
2018-12-29T06:39:20.411Z,24.10
2018-12-29T06:41:49.682Z,26.13
2018-12-29T06:44:19.531Z,25.93
2018-12-29T06:46:51.512Z,24.90
2018-12-29T06:49:21.962Z,27.43
2018-12-29T06:51:52.622Z,26.07
2018-12-29T06:54:24.992Z,26.23
2018-12-29T06:56:55.010Z,25.03
2018-12-29T06:59:24.782Z,25.87
2018-12-29T07:01:54.283Z,25.30
2018-12-29T07:04:24.643Z,25.10
2018-12-29T07:06:55.968Z,24.77
2018-12-29T07:09:25.222Z,26.77
2018-12-29T07:11:54.997Z,26.13
2018-12-29T07:14:25.895Z,24.77
2018-12-29T07:16:57.894Z,24.73
2018-12-29T07:19:27.933Z,25.63
2018-12-29T07:21:58.358Z,25.17
2018-12-29T07:24:27.876Z,25.20
2018-12-29T07:26:57.667Z,26.07
2018-12-29T07:29:27.725Z,25.97
2018-12-29T07:31:56.980Z,25.43
2018-12-29T07:34:27.229Z,26.13
2018-12-29T07:37:00.315Z,26.43
2018-12-29T07:39:30.694Z,27.10
2018-12-29T07:42:00.771Z,25.53
2018-12-29T07:44:30.811Z,24.93
2018-12-29T07:47:02.860Z,26.77
2018-12-29T07:49:32.410Z,26.03
2018-12-29T07:52:02.483Z,25.63
2018-12-29T07:54:32.006Z,27.40
2018-12-29T07:57:01.524Z,26.93
2018-12-29T07:59:31.155Z,26.90
2018-12-29T08:02:01.880Z,28.43
2018-12-29T08:04:31.996Z,26.93
2018-12-29T08:07:15.227Z,27.07
2018-12-29T08:10:33.636Z,26.90
2018-12-29T08:13:06.166Z,27.50
2018-12-29T08:16:02.109Z,28.20
2018-12-29T08:18:51.985Z,26.33
2018-12-29T08:21:32.666Z,28.43
2018-12-29T08:24:09.562Z,27.07
2018-12-29T08:26:44.465Z,26.30
2018-12-29T08:29:27.411Z,28.53
2018-12-29T08:32:01.928Z,29.30
2018-12-29T08:34:49.465Z,28.23
2018-12-29T08:37:27.442Z,27.63
2018-12-29T08:39:58.676Z,29.73
2018-12-29T08:42:38.790Z,30.50
2018-12-29T08:45:08.157Z,31.37
2018-12-29T08:47:38.330Z,29.77
2018-12-29T08:50:31.638Z,30.23
2018-12-29T08:53:02.004Z,32.13
2018-12-29T08:55:31.574Z,33.60
2018-12-29T08:58:01.070Z,31.27
2018-12-29T09:00:30.337Z,30.10
2018-12-29T09:02:59.938Z,31.27
2018-12-29T09:05:34.774Z,31.30
2018-12-29T09:08:04.418Z,30.73
2018-12-29T09:10:49.379Z,30.70
2018-12-29T09:13:33.153Z,30.67
2018-12-29T09:16:12.983Z,30.37
2018-12-29T09:18:50.027Z,30.53
2018-12-29T09:21:21.920Z,33.20
2018-12-29T09:23:53.504Z,35.43
2018-12-29T09:26:24.078Z,36.20
2018-12-29T09:28:53.532Z,31.30
2018-12-29T09:31:23.953Z,31.37
2018-12-29T09:34:22.389Z,31.43
2018-12-29T09:37:05.422Z,34.33
2018-12-29T09:39:38.223Z,31.93
2018-12-29T09:42:12.097Z,32.33
2018-12-29T09:44:42.830Z,31.77
2018-12-29T09:47:41.113Z,36.97
2018-12-29T09:50:19.745Z,32.13
2018-12-29T09:52:50.663Z,34.83
2018-12-29T09:55:23.170Z,54.93
2018-12-29T09:57:55.438Z,46.47
2018-12-29T10:00:25.603Z,45.43
2018-12-29T10:02:55.167Z,52.87
2018-12-29T10:05:24.413Z,40.57
2018-12-29T10:07:53.753Z,39.00
2018-12-29T10:10:23.121Z,34.20
2018-12-29T10:12:53.359Z,39.87
2018-12-29T10:15:22.937Z,39.90
2018-12-29T10:17:52.268Z,35.43
2018-12-29T10:20:21.528Z,36.80
2018-12-29T10:22:51.055Z,35.93
2018-12-29T10:25:20.467Z,35.70
2018-12-29T10:27:50.816Z,36.07
2018-12-29T10:30:20.423Z,35.07
2018-12-29T10:32:51.678Z,36.63
2018-12-29T10:35:24.807Z,33.63
2018-12-29T10:37:54.197Z,36.50
2018-12-29T10:40:25.093Z,35.40
2018-12-29T10:42:55.007Z,35.37
2018-12-29T10:45:28.365Z,36.67
2018-12-29T10:48:05.394Z,35.07
2018-12-29T10:50:34.752Z,35.10
2018-12-29T10:53:05.782Z,37.93
2018-12-29T10:55:35.496Z,40.90
2018-12-29T10:58:04.781Z,34.30
2018-12-29T11:00:35.077Z,35.40
2018-12-29T11:03:04.549Z,32.63
2018-12-29T11:05:34.069Z,34.73
2018-12-29T11:08:05.103Z,33.07
2018-12-29T11:10:34.338Z,34.27
2018-12-29T11:13:03.921Z,33.20
2018-12-29T11:15:33.148Z,34.47
2018-12-29T11:18:02.415Z,33.37
2018-12-29T11:20:32.237Z,33.83
2018-12-29T11:23:01.795Z,36.27
2018-12-29T11:25:31.414Z,37.67
2018-12-29T11:28:17.938Z,38.53
2018-12-29T11:30:50.352Z,33.20
2018-12-29T11:33:35.538Z,40.53
2018-12-29T11:36:09.797Z,44.10
2018-12-29T11:38:42.296Z,47.27
2018-12-29T11:41:14.119Z,41.27
2018-12-29T11:43:47.224Z,47.30
2018-12-29T11:46:29.529Z,50.37
2018-12-29T11:49:04.896Z,42.53
2018-12-29T11:51:35.296Z,36.43
2018-12-29T11:54:05.406Z,41.37
2018-12-29T11:56:35.242Z,35.37
2018-12-29T11:59:11.638Z,36.93
2018-12-29T12:01:46.374Z,35.17
2018-12-29T12:04:20.302Z,34.90
2018-12-29T12:06:58.985Z,38.10
2018-12-29T12:09:38.736Z,32.77
2018-12-29T12:12:23.901Z,33.10
2018-12-29T12:15:02.126Z,31.93
2018-12-29T12:17:35.067Z,29.80
2018-12-29T12:20:05.907Z,30.00
2018-12-29T12:22:36.123Z,32.33
2018-12-29T12:25:08.165Z,29.77
2018-12-29T12:27:37.699Z,32.10
2018-12-29T12:30:07.717Z,32.40
2018-12-29T12:32:38.850Z,31.73
2018-12-29T12:35:09.653Z,33.83
2018-12-29T12:37:39.376Z,33.77
2018-12-29T12:40:09.487Z,35.17
2018-12-29T12:42:39.022Z,34.93
2018-12-29T12:45:08.322Z,37.77
2018-12-29T12:47:37.609Z,36.30
2018-12-29T12:50:06.873Z,36.00
2018-12-29T12:52:36.408Z,40.07
2018-12-29T12:55:05.772Z,42.67
2018-12-29T12:57:35.016Z,37.77
2018-12-29T13:00:05.212Z,35.70
2018-12-29T13:02:34.734Z,39.20
2018-12-29T13:05:04.481Z,39.23
2018-12-29T13:07:33.729Z,43.07
2018-12-29T13:10:04.438Z,38.07
2018-12-29T13:12:36.407Z,40.47
2018-12-29T13:15:07.761Z,43.07
2018-12-29T13:17:37.253Z,39.40
2018-12-29T13:20:07.049Z,39.17
2018-12-29T13:22:36.972Z,39.43
2018-12-29T13:25:06.497Z,39.80
2018-12-29T13:27:36.421Z,38.27
2018-12-29T13:30:07.381Z,38.57
2018-12-29T13:32:36.629Z,40.43
2018-12-29T13:35:08.520Z,45.17
2018-12-29T13:37:39.602Z,41.60
2018-12-29T13:40:11.030Z,45.27
2018-12-29T13:42:40.944Z,43.23
2018-12-29T13:45:14.942Z,41.80
2018-12-29T13:47:44.534Z,37.63
2018-12-29T13:50:22.283Z,50.43
2018-12-29T13:52:51.772Z,44.30
2018-12-29T13:55:21.618Z,41.20
2018-12-29T13:57:51.941Z,41.60
2018-12-29T14:00:23.126Z,38.37
2018-12-29T14:02:53.156Z,42.63
2018-12-29T14:05:24.008Z,38.63
2018-12-29T14:07:56.314Z,39.63
2018-12-29T14:10:26.872Z,40.27
2018-12-29T14:12:56.970Z,38.80
2018-12-29T14:15:27.065Z,41.27
2018-12-29T14:17:57.695Z,42.37
2018-12-29T14:20:27.525Z,38.83
2018-12-29T14:22:56.807Z,45.87
2018-12-29T14:25:26.852Z,41.57
2018-12-29T14:27:58.992Z,39.93
2018-12-29T14:30:28.793Z,39.90
2018-12-29T14:32:58.817Z,42.03
2018-12-29T14:35:28.051Z,39.63
2018-12-29T14:38:12.663Z,40.20
2018-12-29T14:40:42.240Z,41.60
2018-12-29T14:43:12.678Z,43.63
2018-12-29T14:45:41.904Z,41.07
2018-12-29T14:48:11.362Z,42.23
2018-12-29T14:50:40.926Z,40.33
2018-12-29T14:53:10.487Z,39.17
2018-12-29T14:55:40.268Z,38.43
2018-12-29T14:58:09.654Z,39.93
2018-12-29T15:00:40.428Z,38.37
2018-12-29T15:03:10.306Z,38.43
2018-12-29T15:05:40.623Z,38.30
2018-12-29T15:08:12.072Z,37.67
2018-12-29T15:10:41.910Z,36.77
2018-12-29T15:13:14.109Z,38.97
2018-12-29T15:15:43.370Z,41.53
2018-12-29T15:18:19.523Z,36.73
2018-12-29T15:20:49.246Z,39.50
2018-12-29T15:23:18.844Z,39.07
2018-12-29T15:25:51.219Z,38.57
2018-12-29T15:28:24.919Z,36.67
2018-12-29T15:30:54.514Z,40.70
2018-12-29T15:33:31.185Z,38.67
2018-12-29T15:36:15.975Z,34.93
2018-12-29T15:38:42.239Z,40.20
2018-12-29T15:41:15.489Z,38.63
2018-12-29T15:43:45.888Z,40.33
2018-12-29T15:46:23.325Z,45.90
2018-12-29T15:49:00.286Z,42.13
2018-12-29T15:51:30.292Z,47.60
2018-12-29T15:54:01.514Z,43.07
2018-12-29T15:56:31.042Z,33.23
2018-12-29T15:59:05.149Z,36.37
2018-12-29T16:01:36.077Z,45.57
2018-12-29T16:04:11.720Z,43.60
2018-12-29T16:06:54.438Z,37.67
2018-12-29T16:09:27.389Z,35.00
2018-12-29T16:11:58.398Z,36.40
2018-12-29T16:14:35.241Z,34.50
2018-12-29T16:16:58.623Z,35.47
2018-12-29T16:19:28.176Z,33.83
2018-12-29T16:21:57.688Z,31.27
2018-12-29T16:24:28.144Z,29.27
2018-12-29T16:26:57.387Z,30.50
2018-12-29T16:29:46.783Z,34.73
2018-12-29T16:32:34.468Z,37.47
2018-12-29T16:35:22.654Z,31.70
2018-12-29T16:37:53.785Z,32.00
2018-12-29T16:40:31.242Z,30.47
2018-12-29T16:43:08.042Z,39.67
2018-12-29T16:45:41.072Z,37.90
2018-12-29T16:48:10.688Z,34.40
2018-12-29T16:50:42.790Z,32.00
2018-12-29T16:53:16.457Z,31.40
2018-12-29T16:55:47.535Z,35.20
2018-12-29T16:58:16.977Z,31.10
2018-12-29T17:00:47.415Z,34.33
2018-12-29T17:03:20.594Z,30.23
2018-12-29T17:05:51.323Z,30.60
2018-12-29T17:08:21.794Z,28.60
2018-12-29T17:10:51.939Z,30.30
2018-12-29T17:13:21.820Z,30.00
2018-12-29T17:15:52.099Z,30.57
2018-12-29T17:18:27.683Z,34.57
2018-12-29T17:20:57.205Z,33.47
2018-12-29T17:23:26.753Z,30.80
2018-12-29T17:25:56.007Z,28.53
2018-12-29T17:28:28.322Z,29.10
2018-12-29T17:30:59.404Z,26.87
2018-12-29T17:33:28.751Z,28.30
2018-12-29T17:36:03.272Z,30.63
2018-12-29T17:38:36.920Z,27.40
2018-12-29T17:41:07.112Z,26.93
2018-12-29T17:43:37.423Z,27.20
2018-12-29T17:46:11.853Z,24.73
2018-12-29T17:48:41.899Z,38.10
2018-12-29T17:51:12.316Z,29.30
2018-12-29T17:53:47.909Z,33.20
2018-12-29T17:56:14.427Z,28.50
2018-12-29T17:58:47.972Z,35.83
2018-12-29T18:01:19.389Z,27.23
2018-12-29T18:03:48.991Z,28.40
2018-12-29T18:06:19.563Z,27.67
2018-12-29T18:08:48.796Z,29.97
2018-12-29T18:11:18.675Z,26.07
2018-12-29T18:13:47.920Z,26.83
2018-12-29T18:16:17.942Z,26.73
2018-12-29T18:18:47.180Z,26.20
2018-12-29T18:21:16.713Z,26.13
2018-12-29T18:23:51.215Z,28.80
2018-12-29T18:26:20.571Z,27.40
2018-12-29T18:28:49.834Z,34.07
2018-12-29T18:31:19.730Z,26.33
2018-12-29T18:33:56.318Z,24.40
2018-12-29T18:36:27.064Z,24.77
2018-12-29T18:38:59.285Z,23.23
2018-12-29T18:41:30.045Z,24.47
2018-12-29T18:43:59.907Z,21.60
2018-12-29T18:46:32.362Z,23.83
2018-12-29T18:49:03.087Z,23.50
2018-12-29T18:51:37.347Z,23.13
2018-12-29T18:54:07.490Z,22.93
2018-12-29T18:56:45.286Z,25.03
2018-12-29T18:59:12.330Z,22.67
2018-12-29T19:01:42.801Z,23.27
2018-12-29T19:04:12.308Z,23.27
2018-12-29T19:06:48.200Z,20.47
2018-12-29T19:09:17.799Z,22.23
2018-12-29T19:11:53.243Z,21.20
2018-12-29T19:14:23.136Z,20.60
2018-12-29T19:16:52.734Z,23.47
2018-12-29T19:19:22.185Z,23.77
2018-12-29T19:21:51.715Z,24.27
2018-12-29T19:24:21.179Z,24.90
2018-12-29T19:26:51.664Z,23.77
2018-12-29T19:29:21.760Z,22.47
2018-12-29T19:31:52.575Z,24.17
2018-12-29T19:34:22.608Z,24.87
2018-12-29T19:36:51.888Z,25.50
2018-12-29T19:39:23.320Z,23.10
2018-12-29T19:41:57.050Z,23.67
2018-12-29T19:44:33.027Z,23.83
2018-12-29T19:47:05.172Z,24.10
2018-12-29T19:49:35.630Z,26.50
2018-12-29T19:52:06.627Z,24.93
2018-12-29T19:54:36.155Z,22.07
2018-12-29T19:57:07.024Z,22.63
2018-12-29T19:59:37.054Z,20.43
2018-12-29T20:02:06.816Z,19.90
2018-12-29T20:04:39.103Z,16.43
2018-12-29T20:07:10.948Z,14.53
2018-12-29T20:09:43.604Z,14.90
2018-12-29T20:12:13.525Z,15.40
2018-12-29T20:14:44.974Z,31.07
2018-12-29T20:17:14.347Z,14.40
2018-12-29T20:19:43.907Z,49.17
2018-12-29T20:22:13.424Z,29.60
2018-12-29T20:24:42.922Z,21.03
2018-12-29T20:27:12.382Z,22.50
2018-12-29T20:29:41.674Z,17.17
2018-12-29T20:32:11.130Z,15.63
2018-12-29T20:34:40.438Z,27.50
2018-12-29T20:37:10.322Z,25.83
2018-12-29T20:39:39.639Z,15.07
2018-12-29T20:42:10.442Z,14.87
2018-12-29T20:44:39.971Z,26.93
2018-12-29T20:47:10.402Z,23.60
2018-12-29T20:49:41.995Z,26.23
2018-12-29T20:52:11.449Z,19.73
2018-12-29T20:54:46.735Z,23.90
2018-12-29T20:57:19.001Z,19.63
2018-12-29T20:59:49.444Z,23.43
2018-12-29T21:02:19.248Z,19.10
2018-12-29T21:04:48.995Z,17.77
2018-12-29T21:07:18.229Z,17.87
2018-12-29T21:09:48.042Z,20.13
2018-12-29T21:12:17.282Z,18.00
2018-12-29T21:14:46.616Z,19.50
2018-12-29T21:17:15.848Z,18.30
2018-12-29T21:19:46.216Z,16.93
2018-12-29T21:22:18.846Z,18.13
2018-12-29T21:24:48.056Z,18.03
2018-12-29T21:27:20.120Z,19.20
2018-12-29T21:29:50.193Z,17.70
2018-12-29T21:32:20.560Z,16.33
2018-12-29T21:34:50.092Z,17.40
2018-12-29T21:37:19.714Z,16.57
2018-12-29T21:39:48.956Z,16.70
2018-12-29T21:42:18.466Z,19.03
2018-12-29T21:44:48.650Z,17.20
2018-12-29T21:47:23.036Z,18.30
2018-12-29T21:49:56.670Z,18.93
2018-12-29T21:52:26.783Z,17.00
2018-12-29T21:54:56.750Z,20.77
2018-12-29T21:57:33.110Z,20.07
2018-12-29T22:00:03.969Z,21.03
2018-12-29T22:02:36.419Z,27.90
2018-12-29T22:05:09.756Z,71.03
2018-12-29T22:07:40.364Z,20.37
2018-12-29T22:10:09.691Z,20.33
2018-12-29T22:12:38.950Z,23.57
2018-12-29T22:15:09.139Z,21.13
2018-12-29T22:17:38.642Z,17.83
2018-12-29T22:20:08.383Z,22.77
2018-12-29T22:22:37.712Z,20.63
2018-12-29T22:25:06.978Z,20.10
2018-12-29T22:27:36.751Z,19.53
2018-12-29T22:30:06.859Z,25.83
2018-12-29T22:32:37.410Z,26.50
2018-12-29T22:35:08.383Z,21.40
2018-12-29T22:37:42.684Z,18.33
2018-12-29T22:40:13.743Z,18.47
2018-12-29T22:42:44.129Z,17.40
2018-12-29T22:45:14.642Z,18.57
2018-12-29T22:47:43.899Z,20.53
2018-12-29T22:50:13.516Z,19.83
2018-12-29T22:52:42.880Z,19.37
2018-12-29T22:55:12.391Z,20.47
2018-12-29T22:57:41.825Z,19.67
2018-12-29T23:00:27.140Z,18.40
2018-12-29T23:02:56.698Z,18.80
2018-12-29T23:05:31.417Z,18.47
2018-12-29T23:08:01.220Z,18.30
2018-12-29T23:10:31.524Z,20.53
2018-12-29T23:13:01.383Z,20.87
2018-12-29T23:15:30.897Z,20.43
2018-12-29T23:18:02.320Z,20.43
2018-12-29T23:20:33.354Z,20.33
2018-12-29T23:23:02.960Z,19.07
2018-12-29T23:25:33.495Z,19.90
2018-12-29T23:28:03.582Z,20.73
2018-12-29T23:30:32.839Z,18.73
2018-12-29T23:33:04.705Z,18.23
2018-12-29T23:35:35.638Z,19.03
2018-12-29T23:38:05.394Z,17.30
2018-12-29T23:40:35.234Z,17.20
2018-12-29T23:43:06.301Z,16.47
2018-12-29T23:45:35.893Z,15.83
2018-12-29T23:48:06.542Z,15.50
2018-12-29T23:50:36.096Z,15.53
2018-12-29T23:53:06.697Z,13.83
2018-12-29T23:55:38.171Z,9.13
2018-12-29T23:58:11.446Z,6.90
